createdAt,value
2017-05-11T00:00:03.405Z,98.96
2017-05-11T00:00:16.033Z,98.86
2017-05-11T00:00:29.184Z,98.67
2017-05-11T00:00:41.821Z,98.77
2017-05-11T00:00:54.971Z,98.86
2017-05-11T00:01:08.177Z,99.05
2017-05-11T00:01:21.381Z,98.96
2017-05-11T00:01:34.523Z,98.77
2017-05-11T00:01:47.661Z,98.77
2017-05-11T00:02:00.308Z,98.77
2017-05-11T00:02:13.457Z,98.77
2017-05-11T00:02:26.634Z,98.96
2017-05-11T00:02:39.834Z,98.48
2017-05-11T00:02:52.955Z,98.77
2017-05-11T00:03:06.111Z,98.58
2017-05-11T00:03:19.283Z,98.77
2017-05-11T00:03:32.699Z,99.05
2017-05-11T00:03:45.868Z,98.86
2017-05-11T00:03:59.015Z,98.86
2017-05-11T00:04:11.766Z,98.77
2017-05-11T00:04:24.396Z,99.05
2017-05-11T00:04:37.550Z,98.77
2017-05-11T00:04:50.684Z,98.86
2017-05-11T00:05:03.805Z,98.77
2017-05-11T00:05:17.016Z,98.86
2017-05-11T00:05:29.692Z,98.77
2017-05-11T00:05:42.921Z,98.86
2017-05-11T00:05:55.609Z,98.96
2017-05-11T00:06:08.739Z,98.96
2017-05-11T00:06:21.899Z,98.48
2017-05-11T00:06:35.140Z,98.77
2017-05-11T00:06:48.284Z,98.86
2017-05-11T00:07:01.481Z,98.77
2017-05-11T00:07:14.119Z,98.77
2017-05-11T00:07:27.327Z,98.86
2017-05-11T00:07:40.435Z,98.38
2017-05-11T00:07:53.076Z,98.29
2017-05-11T00:08:05.855Z,98.67
2017-05-11T00:08:19.017Z,98.48
2017-05-11T00:08:31.684Z,98.48
2017-05-11T00:08:44.806Z,98.58
2017-05-11T00:08:57.946Z,98.77
2017-05-11T00:09:11.176Z,98.58
2017-05-11T00:09:24.338Z,98.58
2017-05-11T00:09:37.494Z,98.58
2017-05-11T00:09:50.651Z,98.58
2017-05-11T00:10:03.795Z,98.86
2017-05-11T00:10:15.885Z,98.58
2017-05-11T00:10:29.082Z,98.77
2017-05-11T00:10:42.263Z,98.67
2017-05-11T00:10:54.962Z,98.67
2017-05-11T00:11:07.633Z,98.67
2017-05-11T00:11:20.243Z,98.67
2017-05-11T00:11:33.470Z,98.67
2017-05-11T00:11:46.615Z,98.58
2017-05-11T00:11:59.810Z,98.67
2017-05-11T00:12:12.996Z,98.67
2017-05-11T00:12:26.123Z,98.67
2017-05-11T00:12:38.729Z,98.67
2017-05-11T00:12:51.918Z,98.58
2017-05-11T00:13:05.118Z,98.58
2017-05-11T00:13:18.271Z,98.58
2017-05-11T00:13:31.505Z,98.48
2017-05-11T00:13:43.656Z,98.86
2017-05-11T00:13:56.812Z,98.58
2017-05-11T00:14:09.437Z,98.58
2017-05-11T00:14:22.560Z,98.58
2017-05-11T00:14:35.746Z,98.1
2017-05-11T00:14:48.336Z,98.86
2017-05-11T00:15:01.537Z,98.86
2017-05-11T00:15:14.683Z,98.86
2017-05-11T00:15:27.870Z,98.1
2017-05-11T00:15:41.113Z,98.38
2017-05-11T00:15:54.355Z,98.86
2017-05-11T00:16:07.576Z,98.77
2017-05-11T00:16:20.738Z,98.48
2017-05-11T00:16:33.887Z,98.77
2017-05-11T00:16:46.557Z,98.1
2017-05-11T00:16:59.768Z,98.29
2017-05-11T00:17:12.492Z,98.29
2017-05-11T00:17:25.683Z,98.38
2017-05-11T00:17:38.342Z,98.1
2017-05-11T00:17:51.000Z,98.38
2017-05-11T00:18:04.107Z,98.19
2017-05-11T00:18:17.262Z,98.48
2017-05-11T00:18:30.774Z,98.48
2017-05-11T00:18:43.470Z,98.19
2017-05-11T00:18:56.604Z,98.38
2017-05-11T00:19:09.256Z,98.38
2017-05-11T00:19:22.387Z,98.38
2017-05-11T00:19:35.484Z,98.38
2017-05-11T00:19:48.651Z,98.38
2017-05-11T00:20:01.783Z,98.38
2017-05-11T00:20:14.905Z,98.48
2017-05-11T00:20:28.080Z,98.48
2017-05-11T00:20:41.234Z,98.48
2017-05-11T00:20:53.934Z,98.58
2017-05-11T00:21:07.120Z,98.38
2017-05-11T00:21:20.256Z,98.38
2017-05-11T00:21:33.427Z,98.48
2017-05-11T00:21:46.119Z,98.48
2017-05-11T00:21:59.340Z,98.19
2017-05-11T00:22:11.982Z,98.67
2017-05-11T00:22:25.119Z,98.67
2017-05-11T00:22:37.782Z,98.67
2017-05-11T00:22:51.010Z,98.67
2017-05-11T00:23:03.682Z,97.91
2017-05-11T00:23:16.913Z,98.1
2017-05-11T00:23:30.063Z,98
2017-05-11T00:23:42.774Z,97.91
2017-05-11T00:23:55.917Z,98.1
2017-05-11T00:24:09.030Z,98.1
2017-05-11T00:24:22.147Z,98
2017-05-11T00:24:35.269Z,98
2017-05-11T00:24:47.947Z,98
2017-05-11T00:25:01.158Z,98
2017-05-11T00:25:14.376Z,98
2017-05-11T00:25:27.039Z,98
2017-05-11T00:25:40.201Z,98
2017-05-11T00:25:53.368Z,98
2017-05-11T00:26:06.572Z,98.19
2017-05-11T00:26:19.736Z,98.19
2017-05-11T00:26:32.384Z,97.61
2017-05-11T00:26:45.603Z,97.91
2017-05-11T00:26:58.771Z,97.76
2017-05-11T00:27:11.950Z,97.61
2017-05-11T00:27:25.076Z,97.71
2017-05-11T00:27:38.270Z,97.61
2017-05-11T00:27:50.946Z,97.71
2017-05-11T00:28:04.099Z,97.71
2017-05-11T00:28:17.311Z,97.81
2017-05-11T00:28:30.504Z,97.61
2017-05-11T00:28:43.710Z,97.81
2017-05-11T00:28:56.813Z,97.81
2017-05-11T00:29:09.952Z,97.91
2017-05-11T00:29:23.125Z,97.61
2017-05-11T00:29:35.803Z,97.91
2017-05-11T00:29:48.961Z,97.91
2017-05-11T00:30:02.093Z,97.91
2017-05-11T00:30:15.213Z,97.71
2017-05-11T00:30:28.369Z,97.81
2017-05-11T00:30:41.512Z,97.61
2017-05-11T00:30:54.204Z,97.52
2017-05-11T00:31:07.384Z,97.52
2017-05-11T00:31:20.549Z,97.52
2017-05-11T00:31:33.208Z,97.71
2017-05-11T00:31:45.916Z,97.91
2017-05-11T00:31:58.557Z,97.91
2017-05-11T00:32:11.770Z,97.71
2017-05-11T00:32:24.916Z,97.71
2017-05-11T00:32:38.002Z,97.71
2017-05-11T00:32:51.191Z,97.61
2017-05-11T00:33:04.354Z,97.71
2017-05-11T00:33:17.507Z,97.71
2017-05-11T00:33:30.704Z,97.61
2017-05-11T00:33:43.618Z,97.52
2017-05-11T00:33:56.253Z,97.81
2017-05-11T00:34:08.899Z,97.52
2017-05-11T00:34:22.257Z,97.81
2017-05-11T00:34:34.901Z,97.71
2017-05-11T00:34:48.119Z,97.71
2017-05-11T00:35:01.259Z,97.52
2017-05-11T00:35:14.476Z,97.71
2017-05-11T00:35:27.128Z,97.61
2017-05-11T00:35:40.390Z,97.71
2017-05-11T00:35:53.601Z,97.52
2017-05-11T00:36:06.765Z,97.52
2017-05-11T00:36:19.463Z,97.52
2017-05-11T00:36:32.657Z,97.81
2017-05-11T00:36:45.812Z,97.91
2017-05-11T00:36:58.479Z,97.61
2017-05-11T00:37:11.602Z,97.71
2017-05-11T00:37:24.763Z,97.61
2017-05-11T00:37:37.874Z,97.61
2017-05-11T00:37:51.114Z,97.71
2017-05-11T00:38:03.265Z,97.52
2017-05-11T00:38:16.460Z,97.61
2017-05-11T00:38:29.577Z,97.61
2017-05-11T00:38:42.796Z,97.71
2017-05-11T00:38:55.898Z,97.71
2017-05-11T00:39:09.123Z,97.52
2017-05-11T00:39:22.326Z,97.71
2017-05-11T00:39:34.950Z,97.81
2017-05-11T00:39:48.083Z,97.71
2017-05-11T00:40:00.806Z,97.71
2017-05-11T00:40:13.447Z,97.71
2017-05-11T00:40:26.655Z,97.81
2017-05-11T00:40:39.833Z,97.61
2017-05-11T00:40:52.979Z,97.52
2017-05-11T00:41:06.100Z,97.52
2017-05-11T00:41:19.281Z,97.52
2017-05-11T00:41:32.446Z,97.33
2017-05-11T00:41:45.573Z,97.81
2017-05-11T00:41:58.791Z,97.71
2017-05-11T00:42:11.470Z,97.52
2017-05-11T00:42:24.659Z,97.81
2017-05-11T00:42:37.877Z,97.81
2017-05-11T00:42:51.098Z,97.42
2017-05-11T00:43:04.299Z,97.81
2017-05-11T00:43:17.479Z,97.71
2017-05-11T00:43:30.634Z,97.71
2017-05-11T00:43:43.717Z,97.52
2017-05-11T00:43:56.364Z,97.71
2017-05-11T00:44:09.529Z,97.81
2017-05-11T00:44:22.645Z,97.81
2017-05-11T00:44:36.008Z,97.52
2017-05-11T00:44:49.167Z,97.52
2017-05-11T00:45:02.324Z,97.71
2017-05-11T00:45:14.985Z,97.71
2017-05-11T00:45:28.162Z,97.52
2017-05-11T00:45:41.349Z,97.81
2017-05-11T00:45:54.542Z,97.81
2017-05-11T00:46:07.676Z,97.61
2017-05-11T00:46:20.372Z,97.71
2017-05-11T00:46:33.550Z,97.61
2017-05-11T00:46:46.752Z,97.81
2017-05-11T00:46:59.868Z,97.81
2017-05-11T00:47:13.036Z,97.71
2017-05-11T00:47:26.217Z,97.52
2017-05-11T00:47:39.464Z,97.52
2017-05-11T00:47:52.598Z,97.81
2017-05-11T00:48:05.736Z,97.52
2017-05-11T00:48:18.880Z,97.71
2017-05-11T00:48:32.056Z,97.52
2017-05-11T00:48:45.395Z,97.61
2017-05-11T00:48:58.599Z,97.71
2017-05-11T00:49:11.719Z,97.52
2017-05-11T00:49:24.325Z,97.71
2017-05-11T00:49:37.501Z,97.71
2017-05-11T00:49:50.166Z,97.71
2017-05-11T00:50:03.361Z,97.52
2017-05-11T00:50:16.053Z,97.71
2017-05-11T00:50:29.208Z,97.71
2017-05-11T00:50:41.884Z,97.71
2017-05-11T00:50:55.030Z,97.71
2017-05-11T00:51:08.203Z,97.81
2017-05-11T00:51:21.467Z,97.71
2017-05-11T00:51:34.604Z,97.71
2017-05-11T00:51:47.823Z,97.61
2017-05-11T00:52:00.490Z,97.71
2017-05-11T00:52:13.239Z,97.61
2017-05-11T00:52:25.873Z,97.71
2017-05-11T00:52:39.137Z,97.61
2017-05-11T00:52:52.399Z,97.61
2017-05-11T00:53:05.680Z,97.71
2017-05-11T00:53:19.170Z,97.71
2017-05-11T00:53:32.400Z,97.71
2017-05-11T00:53:45.643Z,97.61
2017-05-11T00:53:58.844Z,97.61
2017-05-11T00:54:11.991Z,97.61
2017-05-11T00:54:25.201Z,97.91
2017-05-11T00:54:38.880Z,97.81
2017-05-11T00:54:52.094Z,97.71
2017-05-11T00:55:05.595Z,97.76
2017-05-11T00:55:20.039Z,97.76
2017-05-11T00:55:33.938Z,97.76
2017-05-11T00:55:47.184Z,97.52
2017-05-11T00:56:00.757Z,97.47
2017-05-11T00:56:13.338Z,97.38
2017-05-11T00:56:27.854Z,97.56
2017-05-11T00:56:41.039Z,97.47
2017-05-11T00:56:54.264Z,97.28
2017-05-11T00:57:07.519Z,97.19
2017-05-11T00:57:20.687Z,96.99
2017-05-11T00:57:34.621Z,96.99
2017-05-11T00:57:52.371Z,96.99
2017-05-11T00:58:05.625Z,97.09
2017-05-11T00:58:19.529Z,97.09
2017-05-11T00:58:34.726Z,97.09
2017-05-11T00:58:48.043Z,97.28
2017-05-11T00:59:01.258Z,96.99
2017-05-11T00:59:14.485Z,96.89
2017-05-11T00:59:27.183Z,96.89
2017-05-11T00:59:40.334Z,96.8
2017-05-11T00:59:53.462Z,96.8
2017-05-11T01:00:06.612Z,96.7
2017-05-11T01:00:19.292Z,96.99
2017-05-11T01:00:32.489Z,96.7
2017-05-11T01:00:45.680Z,96.89
2017-05-11T01:00:58.933Z,96.7
2017-05-11T01:01:11.826Z,96.8
2017-05-11T01:01:25.630Z,96.61
2017-05-11T01:01:39.555Z,96.8
2017-05-11T01:01:52.787Z,96.51
2017-05-11T01:02:05.551Z,96.51
2017-05-11T01:02:18.782Z,96.51
2017-05-11T01:02:32.025Z,96.51
2017-05-11T01:02:45.271Z,96.61
2017-05-11T01:02:57.950Z,96.61
2017-05-11T01:03:11.396Z,96.61
2017-05-11T01:03:25.366Z,96.42
2017-05-11T01:03:38.568Z,96.22
2017-05-11T01:03:51.749Z,96.22
2017-05-11T01:04:10.516Z,96.42
2017-05-11T01:04:24.533Z,96.22
2017-05-11T01:04:37.693Z,95.84
2017-05-11T01:04:51.177Z,96.22
2017-05-11T01:05:04.315Z,96.13
2017-05-11T01:05:17.712Z,96.13
2017-05-11T01:05:30.390Z,96.13
2017-05-11T01:05:43.579Z,96.42
2017-05-11T01:05:56.284Z,96.51
2017-05-11T01:06:09.481Z,96.51
2017-05-11T01:06:22.196Z,96.13
2017-05-11T01:06:35.413Z,96.13
2017-05-11T01:06:48.559Z,96.32
2017-05-11T01:07:00.702Z,96.42
2017-05-11T01:07:14.305Z,96.32
2017-05-11T01:07:27.539Z,96.13
2017-05-11T01:07:40.775Z,95.94
2017-05-11T01:07:56.424Z,96.13
2017-05-11T01:08:09.603Z,96.13
2017-05-11T01:08:23.032Z,95.75
2017-05-11T01:08:36.197Z,95.84
2017-05-11T01:08:49.415Z,95.94
2017-05-11T01:09:05.722Z,95.94
2017-05-11T01:09:19.120Z,95.84
2017-05-11T01:09:32.292Z,95.65
2017-05-11T01:09:45.526Z,95.84
2017-05-11T01:09:58.991Z,95.94
2017-05-11T01:10:11.685Z,95.94
2017-05-11T01:10:24.320Z,95.46
2017-05-11T01:10:36.474Z,95.75
2017-05-11T01:10:49.643Z,95.65
2017-05-11T01:11:02.939Z,95.65
2017-05-11T01:11:16.130Z,95.84
2017-05-11T01:11:28.824Z,96.03
2017-05-11T01:11:41.545Z,95.65
2017-05-11T01:11:56.292Z,95.46
2017-05-11T01:12:09.436Z,95.65
2017-05-11T01:12:22.061Z,95.55
2017-05-11T01:12:35.271Z,95.26
2017-05-11T01:12:48.491Z,95.17
2017-05-11T01:13:01.597Z,95.26
2017-05-11T01:13:15.023Z,95.21
2017-05-11T01:13:28.279Z,95.41
2017-05-11T01:13:41.527Z,95.46
2017-05-11T01:13:57.739Z,95.36
2017-05-11T01:14:10.931Z,95.26
2017-05-11T01:14:24.094Z,95.46
2017-05-11T01:14:38.064Z,95.36
2017-05-11T01:14:52.764Z,95.55
2017-05-11T01:15:05.921Z,95.21
2017-05-11T01:15:19.109Z,95.07
2017-05-11T01:15:32.268Z,95.07
2017-05-11T01:15:46.650Z,95.12
2017-05-11T01:15:59.346Z,95.21
2017-05-11T01:16:14.370Z,95.07
2017-05-11T01:16:29.230Z,95.12
2017-05-11T01:16:42.490Z,95.03
2017-05-11T01:16:55.189Z,95.12
2017-05-11T01:17:08.353Z,95.21
2017-05-11T01:17:34.104Z,94.93
2017-05-11T01:17:48.086Z,94.84
2017-05-11T01:18:00.769Z,94.74
2017-05-11T01:18:40.361Z,95.12
2017-05-11T01:18:53.801Z,94.49
2017-05-11T01:19:07.118Z,94.93
2017-05-11T01:19:20.361Z,94.54
2017-05-11T01:19:35.539Z,94.84
2017-05-11T01:19:51.130Z,94.64
2017-05-11T01:20:08.972Z,94.74
2017-05-11T01:20:23.063Z,94.88
2017-05-11T01:20:38.545Z,94.69
2017-05-11T01:20:51.742Z,94.84
2017-05-11T01:21:05.933Z,94.64
2017-05-11T01:21:19.249Z,94.84
2017-05-11T01:21:32.419Z,94.54
2017-05-11T01:21:45.637Z,94.84
2017-05-11T01:21:59.317Z,94.64
2017-05-11T01:22:12.744Z,94.74
2017-05-11T01:22:28.693Z,94.64
2017-05-11T01:22:41.930Z,94.79
2017-05-11T01:22:56.311Z,94.64
2017-05-11T01:23:09.444Z,94.54
2017-05-11T01:23:22.652Z,94.74
2017-05-11T01:23:40.878Z,94.74
2017-05-11T01:23:59.893Z,94.79
2017-05-11T01:24:13.237Z,94.79
2017-05-11T01:24:29.116Z,94.88
2017-05-11T01:24:45.334Z,94.74
2017-05-11T01:24:58.507Z,94.79
2017-05-11T01:25:12.001Z,94.88
2017-05-11T01:25:25.149Z,94.79
2017-05-11T01:25:39.534Z,94.79
2017-05-11T01:25:53.937Z,94.59
2017-05-11T01:26:07.246Z,94.69
2017-05-11T01:26:20.059Z,94.79
2017-05-11T01:26:35.576Z,94.79
2017-05-11T01:26:48.779Z,94.79
2017-05-11T01:27:02.747Z,94.79
2017-05-11T01:27:16.699Z,94.49
2017-05-11T01:27:35.331Z,94.79
2017-05-11T01:27:48.714Z,94.49
2017-05-11T01:28:06.972Z,94.79
2017-05-11T01:28:20.478Z,94.88
2017-05-11T01:28:33.636Z,94.88
2017-05-11T01:28:45.808Z,94.79
2017-05-11T01:28:58.477Z,94.59
2017-05-11T01:29:11.644Z,94.69
2017-05-11T01:29:29.434Z,94.59
2017-05-11T01:29:54.488Z,94.79
2017-05-11T01:30:08.068Z,94.88
2017-05-11T01:30:25.694Z,94.59
2017-05-11T01:30:39.716Z,94.59
2017-05-11T01:30:53.010Z,94.79
2017-05-11T01:31:16.527Z,95.17
2017-05-11T01:32:03.695Z,94.88
2017-05-11T01:32:15.932Z,94.98
2017-05-11T01:32:40.952Z,95.07
2017-05-11T01:33:09.545Z,95.26
2017-05-11T01:33:23.058Z,95.17
2017-05-11T01:33:37.030Z,95.17
2017-05-11T01:33:50.177Z,95.17
2017-05-11T01:34:03.984Z,95.26
2017-05-11T01:34:17.348Z,95.17
2017-05-11T01:34:30.751Z,95.17
2017-05-11T01:34:43.394Z,95.26
2017-05-11T01:34:56.040Z,95.07
2017-05-11T01:35:09.235Z,95.26
2017-05-11T01:35:22.377Z,95.26
2017-05-11T01:35:35.600Z,95.17
2017-05-11T01:35:48.752Z,95.26
2017-05-11T01:36:01.434Z,95.07
2017-05-11T01:36:14.674Z,95.26
2017-05-11T01:36:27.774Z,95.07
2017-05-11T01:36:40.915Z,95.17
2017-05-11T01:36:54.134Z,95.17
2017-05-11T01:37:07.338Z,94.98
2017-05-11T01:37:20.740Z,95.07
2017-05-11T01:37:33.898Z,95.07
2017-05-11T01:37:47.067Z,95.26
2017-05-11T01:38:00.282Z,95.07
2017-05-11T01:38:12.975Z,94.98
2017-05-11T01:38:27.469Z,94.98
2017-05-11T01:38:41.963Z,95.07
2017-05-11T01:38:55.159Z,94.98
2017-05-11T01:39:08.361Z,95.17
2017-05-11T01:39:21.486Z,95.07
2017-05-11T01:39:34.618Z,95.26
2017-05-11T01:39:47.762Z,95.07
2017-05-11T01:40:00.416Z,95.07
2017-05-11T01:40:13.077Z,95.07
2017-05-11T01:40:26.254Z,95.26
2017-05-11T01:40:38.884Z,95.36
2017-05-11T01:40:52.025Z,95.65
2017-05-11T01:41:05.204Z,95.26
2017-05-11T01:41:17.845Z,95.26
2017-05-11T01:41:30.995Z,95.26
2017-05-11T01:41:44.171Z,95.26
2017-05-11T01:41:57.335Z,95.07
2017-05-11T01:42:10.535Z,95.46
2017-05-11T01:42:23.763Z,95.17
2017-05-11T01:42:36.973Z,95.36
2017-05-11T01:42:50.241Z,95.55
2017-05-11T01:43:04.170Z,95.46
2017-05-11T01:43:17.426Z,95.26
2017-05-11T01:43:30.573Z,95.26
2017-05-11T01:43:43.818Z,95.26
2017-05-11T01:43:57.009Z,95.65
2017-05-11T01:44:10.170Z,95.26
2017-05-11T01:44:23.293Z,95.26
2017-05-11T01:44:36.486Z,95.36
2017-05-11T01:44:49.610Z,95.26
2017-05-11T01:45:02.748Z,95.65
2017-05-11T01:45:14.879Z,95.75
2017-05-11T01:45:28.031Z,95.46
2017-05-11T01:45:41.234Z,95.55
2017-05-11T01:45:54.395Z,95.65
2017-05-11T01:46:07.544Z,95.75
2017-05-11T01:46:20.955Z,95.84
2017-05-11T01:46:34.258Z,95.75
2017-05-11T01:46:49.005Z,95.46
2017-05-11T01:47:05.016Z,95.75
2017-05-11T01:47:18.177Z,95.46
2017-05-11T01:47:34.364Z,95.55
2017-05-11T01:47:48.992Z,95.65
2017-05-11T01:48:02.928Z,95.75
2017-05-11T01:48:24.077Z,95.94
2017-05-11T01:48:43.754Z,96.03
2017-05-11T01:49:00.846Z,96.03
2017-05-11T01:49:14.495Z,95.46
2017-05-11T01:49:28.151Z,95.26
2017-05-11T01:49:41.928Z,95.46
2017-05-11T01:49:55.063Z,95.7
2017-05-11T01:50:07.663Z,95.75
2017-05-11T01:50:20.430Z,95.84
2017-05-11T01:50:33.646Z,95.75
2017-05-11T01:50:46.822Z,95.65
2017-05-11T01:51:00.164Z,95.65
2017-05-11T01:51:13.966Z,95.6
2017-05-11T01:51:27.160Z,96.03
2017-05-11T01:51:40.351Z,95.79
2017-05-11T01:51:53.572Z,95.84
2017-05-11T01:52:06.833Z,95.94
2017-05-11T01:52:20.026Z,95.46
2017-05-11T01:53:05.938Z,95.84
2017-05-11T01:53:20.725Z,95.75
2017-05-11T01:53:35.021Z,95.75
2017-05-11T01:53:48.244Z,95.5
2017-05-11T01:54:05.227Z,95.75
2017-05-11T01:54:18.429Z,95.55
2017-05-11T01:54:36.666Z,95.46
2017-05-11T01:54:49.847Z,95.46
2017-05-11T01:55:08.069Z,95.7
2017-05-11T01:55:32.762Z,95.79
2017-05-11T01:55:50.206Z,95.75
2017-05-11T01:56:02.871Z,95.89
2017-05-11T01:56:16.732Z,95.75
2017-05-11T01:56:29.971Z,95.94
2017-05-11T01:56:43.115Z,95.79
2017-05-11T01:56:57.049Z,95.79
2017-05-11T01:57:10.280Z,95.89
2017-05-11T01:57:24.389Z,95.79
2017-05-11T01:57:38.407Z,95.5
2017-05-11T01:57:51.614Z,95.79
2017-05-11T01:58:07.886Z,95.89
2017-05-11T01:58:26.883Z,95.6
2017-05-11T01:58:44.347Z,95.6
2017-05-11T01:59:03.401Z,95.84
2017-05-11T01:59:16.595Z,95.6
2017-05-11T02:00:11.840Z,95.7
2017-05-11T02:00:28.118Z,95.7
2017-05-11T02:00:42.083Z,95.7
2017-05-11T02:01:01.202Z,95.89
2017-05-11T02:01:15.081Z,95.89
2017-05-11T02:01:28.450Z,95.89
2017-05-11T02:01:41.887Z,95.7
2017-05-11T02:01:55.042Z,95.79
2017-05-11T02:02:07.743Z,95.7
2017-05-11T02:02:22.328Z,95.89
2017-05-11T02:02:34.944Z,95.5
2017-05-11T02:02:48.092Z,95.7
2017-05-11T02:03:01.216Z,95.79
2017-05-11T02:03:14.386Z,95.98
2017-05-11T02:03:27.566Z,95.79
2017-05-11T02:03:40.211Z,95.79
2017-05-11T02:03:58.252Z,95.89
2017-05-11T02:04:11.431Z,95.79
2017-05-11T02:04:24.334Z,95.79
2017-05-11T02:04:37.503Z,95.79
2017-05-11T02:04:50.181Z,96.08
2017-05-11T02:05:02.881Z,95.6
2017-05-11T02:05:16.265Z,95.7
2017-05-11T02:05:29.634Z,95.79
2017-05-11T02:05:42.752Z,95.79
2017-05-11T02:05:56.186Z,95.7
2017-05-11T02:06:09.448Z,95.79
2017-05-11T02:06:22.683Z,95.7
2017-05-11T02:06:36.104Z,95.7
2017-05-11T02:06:49.275Z,95.89
2017-05-11T02:07:01.933Z,95.79
2017-05-11T02:07:15.097Z,95.79
2017-05-11T02:07:28.328Z,95.79
2017-05-11T02:07:41.009Z,95.79
2017-05-11T02:07:54.232Z,95.79
2017-05-11T02:08:07.462Z,95.79
2017-05-11T02:08:20.177Z,95.7
2017-05-11T02:08:33.359Z,95.7
2017-05-11T02:08:46.067Z,95.79
2017-05-11T02:08:58.872Z,95.5
2017-05-11T02:09:12.057Z,95.79
2017-05-11T02:09:25.310Z,96.08
2017-05-11T02:09:38.524Z,96.08
2017-05-11T02:09:51.649Z,95.79
2017-05-11T02:10:05.055Z,95.98
2017-05-11T02:10:17.780Z,95.98
2017-05-11T02:10:30.541Z,95.98
2017-05-11T02:10:43.715Z,95.98
2017-05-11T02:10:56.884Z,95.79
2017-05-11T02:11:10.280Z,95.79
2017-05-11T02:11:24.977Z,95.79
2017-05-11T02:11:38.219Z,95.5
2017-05-11T02:11:52.016Z,95.89
2017-05-11T02:12:05.465Z,95.89
2017-05-11T02:12:18.656Z,95.98
2017-05-11T02:12:31.270Z,95.98
2017-05-11T02:12:44.526Z,95.79
2017-05-11T02:12:57.660Z,95.98
2017-05-11T02:13:10.312Z,96.27
2017-05-11T02:13:23.248Z,96.47
2017-05-11T02:13:36.456Z,96.37
2017-05-11T02:13:49.951Z,96.18
2017-05-11T02:14:03.150Z,95.98
2017-05-11T02:14:16.303Z,95.98
2017-05-11T02:14:29.481Z,96.37
2017-05-11T02:14:42.716Z,95.98
2017-05-11T02:14:55.857Z,96.37
2017-05-11T02:15:08.994Z,96.08
2017-05-11T02:15:21.557Z,96.27
2017-05-11T02:15:34.694Z,96.37
2017-05-11T02:15:46.829Z,96.47
2017-05-11T02:15:59.468Z,96.18
2017-05-11T02:16:12.110Z,95.98
2017-05-11T02:16:25.274Z,95.98
2017-05-11T02:16:38.452Z,96.18
2017-05-11T02:16:51.090Z,96.18
2017-05-11T02:17:04.206Z,95.98
2017-05-11T02:17:17.332Z,96.37
2017-05-11T02:17:30.486Z,96.18
2017-05-11T02:17:43.650Z,96.37
2017-05-11T02:17:56.317Z,96.37
2017-05-11T02:18:09.053Z,96.27
2017-05-11T02:18:22.224Z,95.98
2017-05-11T02:18:34.878Z,95.98
2017-05-11T02:18:48.084Z,96.18
2017-05-11T02:19:00.727Z,96.37
2017-05-11T02:19:13.934Z,96.47
2017-05-11T02:19:27.277Z,96.37
2017-05-11T02:19:40.501Z,96.27
2017-05-11T02:19:53.650Z,96.27
2017-05-11T02:20:06.905Z,96.56
2017-05-11T02:20:19.529Z,96.56
2017-05-11T02:20:32.684Z,96.47
2017-05-11T02:20:45.849Z,96.37
2017-05-11T02:20:59.029Z,96.27
2017-05-11T02:21:12.172Z,96.18
2017-05-11T02:21:25.380Z,96.56
2017-05-11T02:21:38.558Z,96.56
2017-05-11T02:21:51.722Z,96.18
2017-05-11T02:22:04.860Z,96.18
2017-05-11T02:22:17.515Z,96.47
2017-05-11T02:22:30.695Z,96.47
2017-05-11T02:22:43.395Z,96.18
2017-05-11T02:22:56.085Z,96.18
2017-05-11T02:23:08.696Z,96.56
2017-05-11T02:23:21.873Z,96.47
2017-05-11T02:23:35.040Z,96.27
2017-05-11T02:23:48.163Z,96.47
2017-05-11T02:24:01.344Z,96.37
2017-05-11T02:24:14.510Z,96.56
2017-05-11T02:24:27.658Z,96.37
2017-05-11T02:24:40.804Z,96.47
2017-05-11T02:24:53.960Z,96.56
2017-05-11T02:25:06.628Z,96.56
2017-05-11T02:25:19.740Z,96.56
2017-05-11T02:25:32.869Z,96.27
2017-05-11T02:25:46.096Z,96.18
2017-05-11T02:25:59.251Z,96.37
2017-05-11T02:26:12.416Z,96.37
2017-05-11T02:26:25.552Z,96.47
2017-05-11T02:26:38.715Z,96.56
2017-05-11T02:26:51.881Z,96.37
2017-05-11T02:27:05.089Z,96.18
2017-05-11T02:27:18.335Z,96.18
2017-05-11T02:27:31.526Z,96.13
2017-05-11T02:27:44.715Z,96.08
2017-05-11T02:27:57.361Z,95.94
2017-05-11T02:28:10.546Z,96.27
2017-05-11T02:28:23.672Z,96.18
2017-05-11T02:28:36.343Z,96.47
2017-05-11T02:28:49.549Z,96.18
2017-05-11T02:29:02.181Z,96.47
2017-05-11T02:29:15.416Z,96.32
2017-05-11T02:29:28.563Z,96.13
2017-05-11T02:29:41.206Z,96.13
2017-05-11T02:29:54.355Z,95.98
2017-05-11T02:30:07.543Z,96.13
2017-05-11T02:30:20.730Z,96.13
2017-05-11T02:30:33.346Z,95.94
2017-05-11T02:30:46.415Z,95.94
2017-05-11T02:30:59.582Z,96.03
2017-05-11T02:31:12.794Z,96.08
2017-05-11T02:31:25.935Z,95.94
2017-05-11T02:31:39.147Z,96.13
2017-05-11T02:31:52.309Z,96.13
2017-05-11T02:32:05.443Z,96.13
2017-05-11T02:32:18.557Z,96.22
2017-05-11T02:32:31.716Z,96.42
2017-05-11T02:32:44.864Z,96.03
2017-05-11T02:32:58.055Z,95.94
2017-05-11T02:33:10.708Z,96.13
2017-05-11T02:33:23.918Z,95.94
2017-05-11T02:33:37.097Z,95.84
2017-05-11T02:33:49.780Z,96.03
2017-05-11T02:34:02.483Z,95.55
2017-05-11T02:34:15.134Z,96.03
2017-05-11T02:34:28.508Z,95.94
2017-05-11T02:34:41.665Z,95.94
2017-05-11T02:34:54.938Z,95.94
2017-05-11T02:35:08.127Z,96.13
2017-05-11T02:35:21.289Z,95.94
2017-05-11T02:35:34.559Z,95.94
2017-05-11T02:35:47.710Z,95.84
2017-05-11T02:36:00.880Z,95.94
2017-05-11T02:36:14.018Z,95.94
2017-05-11T02:36:27.180Z,95.94
2017-05-11T02:36:40.380Z,95.75
2017-05-11T02:36:53.606Z,95.94
2017-05-11T02:37:06.302Z,95.94
2017-05-11T02:37:19.515Z,96.03
2017-05-11T02:37:32.753Z,96.03
2017-05-11T02:37:46.798Z,95.75
2017-05-11T02:38:04.308Z,95.75
2017-05-11T02:38:17.511Z,96.13
2017-05-11T02:38:30.679Z,95.94
2017-05-11T02:38:43.839Z,96.03
2017-05-11T02:38:57.094Z,96.13
2017-05-11T02:39:11.745Z,95.46
2017-05-11T02:39:24.462Z,95.75
2017-05-11T02:39:37.596Z,95.75
2017-05-11T02:39:50.275Z,95.75
2017-05-11T02:40:03.440Z,95.94
2017-05-11T02:40:15.574Z,95.46
2017-05-11T02:40:28.793Z,95.46
2017-05-11T02:40:41.929Z,95.94
2017-05-11T02:40:55.075Z,95.75
2017-05-11T02:41:08.220Z,95.94
2017-05-11T02:41:21.390Z,95.94
2017-05-11T02:41:34.524Z,95.84
2017-05-11T02:41:47.304Z,95.65
2017-05-11T02:42:00.483Z,95.75
2017-05-11T02:42:13.205Z,95.75
2017-05-11T02:42:26.413Z,95.65
2017-05-11T02:42:39.603Z,96.03
2017-05-11T02:42:52.765Z,95.55
2017-05-11T02:43:05.421Z,95.65
2017-05-11T02:43:18.080Z,95.65
2017-05-11T02:43:31.227Z,95.55
2017-05-11T02:43:43.860Z,95.84
2017-05-11T02:43:57.015Z,95.75
2017-05-11T02:44:10.162Z,95.75
2017-05-11T02:44:23.311Z,96.03
2017-05-11T02:44:36.446Z,95.65
2017-05-11T02:44:49.618Z,95.94
2017-05-11T02:45:02.273Z,95.65
2017-05-11T02:45:14.996Z,95.17
2017-05-11T02:45:28.176Z,95.46
2017-05-11T02:45:41.316Z,95.75
2017-05-11T02:45:54.408Z,95.46
2017-05-11T02:46:07.577Z,95.46
2017-05-11T02:46:20.704Z,95.55
2017-05-11T02:46:33.375Z,95.26
2017-05-11T02:46:46.092Z,95.36
2017-05-11T02:46:59.331Z,95.65
2017-05-11T02:47:12.533Z,95.75
2017-05-11T02:47:25.725Z,95.36
2017-05-11T02:47:38.958Z,95.26
2017-05-11T02:47:52.188Z,95.17
2017-05-11T02:48:04.903Z,95.17
2017-05-11T02:48:18.003Z,95.17
2017-05-11T02:48:31.168Z,95.46
2017-05-11T02:48:44.358Z,95.46
2017-05-11T02:48:57.724Z,95.46
2017-05-11T02:49:10.964Z,95.17
2017-05-11T02:49:24.123Z,95.26
2017-05-11T02:49:37.474Z,95.17
2017-05-11T02:49:50.704Z,95.36
2017-05-11T02:50:03.398Z,95.46
2017-05-11T02:50:16.047Z,95.36
2017-05-11T02:50:29.194Z,95.46
2017-05-11T02:50:42.316Z,95.36
2017-05-11T02:50:55.462Z,95.46
2017-05-11T02:51:08.087Z,95.65
2017-05-11T02:51:21.277Z,95.46
2017-05-11T02:51:34.444Z,95.46
2017-05-11T02:51:47.120Z,95.46
2017-05-11T02:51:59.286Z,95.46
2017-05-11T02:52:11.932Z,95.46
2017-05-11T02:52:25.046Z,95.36
2017-05-11T02:52:38.238Z,95.36
2017-05-11T02:52:51.385Z,95.65
2017-05-11T02:53:04.521Z,95.65
2017-05-11T02:53:17.709Z,95.65
2017-05-11T02:53:30.907Z,95.46
2017-05-11T02:53:44.064Z,95.55
2017-05-11T02:53:57.262Z,95.36
2017-05-11T02:54:10.453Z,95.26
2017-05-11T02:54:23.598Z,95.55
2017-05-11T02:54:36.725Z,95.36
2017-05-11T02:54:49.383Z,95.65
2017-05-11T02:55:02.491Z,95.36
2017-05-11T02:55:15.669Z,95.46
2017-05-11T02:55:28.868Z,95.65
2017-05-11T02:55:42.041Z,95.55